Time;durP1;ratioP1;P1;durP2;ratioP2;P2;SDS_P1;SDS_P2;PMS_P1;PMS_P2;Temp;Humidity;BMP_temperature;BMP_pressure;BME280_temperature;BME280_humidity;BME280_pressure;Samples;Min_cycle;Max_cycle;Signal;HPM_P1;HPM_P2
2021/10/21 00:00:38;;;;;;;5.03;2.40;;;20.00;65.10;;;;;;1083101;46;20038;-70
2021/10/21 00:02:20;;;;;;;3.95;2.22;;;20.00;65.60;;;;;;1084226;31;20486;-69
2021/10/21 00:04:01;;;;;;;3.97;2.40;;;19.90;66.40;;;;;;1082426;46;20030;-71
2021/10/21 00:05:42;;;;;;;4.13;2.03;;;19.90;66.60;;;;;;1082649;46;20039;-71
2021/10/21 00:07:24;;;;;;;4.50;2.35;;;19.90;66.60;;;;;;1082359;46;20397;-69
2021/10/21 00:09:05;;;;;;;2.45;2.00;;;19.80;67.00;;;;;;1082892;39;20575;-70
2021/10/21 00:10:48;;;;;;;2.75;2.30;;;19.70;67.20;;;;;;1082547;46;20049;-68
2021/10/21 00:12:33;;;;;;;2.80;2.03;;;19.70;67.20;;;;;;1083138;39;20367;-68
2021/10/21 00:14:14;;;;;;;2.90;2.28;;;19.60;67.20;;;;;;1083144;39;20619;-69
2021/10/21 00:15:55;;;;;;;2.92;2.13;;;19.50;67.10;;;;;;1082424;47;20062;-68
2021/10/21 00:17:36;;;;;;;1.80;1.70;;;19.50;67.50;;;;;;1082845;47;20701;-70
2021/10/21 00:19:18;;;;;;;2.92;2.20;;;19.40;67.50;;;;;;1082765;47;20034;-69
2021/10/21 00:20:59;;;;;;;3.63;2.05;;;19.40;67.60;;;;;;1082764;46;20034;-70
2021/10/21 00:22:40;;;;;;;3.03;2.00;;;19.30;68.00;;;;;;1082838;39;20456;-71
2021/10/21 00:24:22;;;;;;;4.20;2.53;;;19.30;69.00;;;;;;1082805;47;20057;-70
2021/10/21 00:26:06;;;;;;;3.45;2.50;;;19.20;69.80;;;;;;1082526;46;20034;-70
2021/10/21 00:27:48;;;;;;;2.67;2.40;;;19.10;70.70;;;;;;1082791;46;20035;-69
2021/10/21 00:29:29;;;;;;;3.47;2.25;;;19.00;70.70;;;;;;1082484;46;20035;-71
2021/10/21 00:31:10;;;;;;;2.63;2.40;;;18.90;71.40;;;;;;1082535;47;20034;-70
2021/10/21 00:32:52;;;;;;;2.40;2.13;;;18.90;72.50;;;;;;1082439;47;20042;-72
2021/10/21 00:34:33;;;;;;;2.60;2.40;;;18.80;72.10;;;;;;1082978;47;20034;-70
2021/10/21 00:36:15;;;;;;;5.18;2.97;;;18.70;73.60;;;;;;1082502;47;20035;-72
2021/10/21 00:37:56;;;;;;;4.50;2.58;;;18.70;73.30;;;;;;1082329;47;20042;-69
2021/10/21 00:39:37;;;;;;;4.80;2.38;;;18.60;73.70;;;;;;1082513;47;20035;-71
2021/10/21 00:41:18;;;;;;;2.15;1.95;;;18.60;74.20;;;;;;1082414;46;20065;-70
2021/10/21 00:42:59;;;;;;;2.53;2.22;;;18.50;74.40;;;;;;1082035;46;20034;-68
2021/10/21 00:44:41;;;;;;;4.38;2.35;;;18.50;74.40;;;;;;1081910;47;20036;-70
2021/10/21 00:46:22;;;;;;;3.47;2.13;;;18.40;74.70;;;;;;1082409;46;20057;-70
2021/10/21 00:48:04;;;;;;;2.72;2.20;;;18.40;74.90;;;;;;1082416;46;20041;-70
2021/10/21 00:49:45;;;;;;;2.25;2.05;;;18.30;75.30;;;;;;1082086;47;20047;-70
2021/10/21 00:51:27;;;;;;;3.33;2.00;;;18.30;75.40;;;;;;1082410;47;20034;-71
2021/10/21 00:53:13;;;;;;;3.13;2.25;;;18.30;75.40;;;;;;1081996;46;20129;-72
2021/10/21 00:54:55;;;;;;;3.17;1.77;;;18.20;76.00;;;;;;1082333;47;20520;-70
2021/10/21 00:56:36;;;;;;;2.90;2.05;;;18.20;75.80;;;;;;1082355;47;20034;-73
2021/10/21 00:58:18;;;;;;;3.08;1.80;;;18.20;76.10;;;;;;1082241;47;20052;-69
2021/10/21 00:59:59;;;;;;;2.55;1.88;;;18.10;76.30;;;;;;1082472;47;20035;-72
2021/10/21 01:01:40;;;;;;;1.55;1.45;;;18.10;76.90;;;;;;1082719;47;20034;-71
2021/10/21 01:03:22;;;;;;;1.63;1.52;;;18.00;76.00;;;;;;1082344;47;20034;-70
2021/10/21 01:05:04;;;;;;;1.50;1.40;;;18.00;75.70;;;;;;1082654;47;20057;-72
2021/10/21 01:06:45;;;;;;;2.63;1.45;;;18.00;75.40;;;;;;1082801;46;20034;-72
2021/10/21 01:08:27;;;;;;;2.17;1.48;;;18.00;74.40;;;;;;1082357;47;20045;-69
2021/10/21 01:10:09;;;;;;;1.77;1.33;;;18.00;73.80;;;;;;1082743;46;20060;-71
2021/10/21 01:11:51;;;;;;;1.42;1.27;;;18.00;73.40;;;;;;1082759;47;20505;-70
2021/10/21 01:13:33;;;;;;;1.83;1.00;;;17.90;71.00;;;;;;1082400;39;20410;-72
2021/10/21 01:15:27;;;;;;;3.85;0.93;;;17.90;69.10;;;;;;1082542;47;20493;-71
2021/10/21 01:17:08;;;;;;;4.25;1.17;;;17.90;67.80;;;;;;1082827;47;20039;-70
2021/10/21 01:18:49;;;;;;;2.33;0.80;;;17.90;67.50;;;;;;1082711;46;20042;-71
2021/10/21 01:20:31;;;;;;;2.92;1.15;;;17.80;65.10;;;;;;1082345;47;20066;-70
2021/10/21 01:22:14;;;;;;;1.58;0.90;;;17.80;64.30;;;;;;1082481;47;20034;-70
2021/10/21 01:23:55;;;;;;;2.25;0.93;;;17.80;62.50;;;;;;1082565;47;20493;-71
2021/10/21 01:25:36;;;;;;;2.42;0.90;;;17.80;60.80;;;;;;1082323;47;20035;-71
2021/10/21 01:27:17;;;;;;;2.30;0.82;;;17.80;61.00;;;;;;1082739;47;20035;-72
2021/10/21 01:28:59;;;;;;;1.67;0.88;;;17.80;61.30;;;;;;1082676;47;20046;-71
2021/10/21 01:30:40;;;;;;;3.38;1.13;;;17.70;61.00;;;;;;1082253;47;20034;-70
2021/10/21 01:32:23;;;;;;;0.88;0.73;;;17.70;61.30;;;;;;1082364;47;20035;-71
2021/10/21 01:34:09;;;;;;;0.70;0.70;;;17.70;61.50;;;;;;1082762;47;20037;-71
2021/10/21 01:35:50;;;;;;;1.92;0.95;;;17.80;61.60;;;;;;1082440;47;20145;-72
2021/10/21 01:37:31;;;;;;;8.18;1.77;;;17.80;62.30;;;;;;1082542;47;20041;-71
2021/10/21 01:39:13;;;;;;;1.63;1.00;;;17.80;66.70;;;;;;1082206;47;20059;-72
2021/10/21 01:40:54;;;;;;;1.75;1.25;;;17.70;67.70;;;;;;1082392;47;20901;-72
2021/10/21 01:42:36;;;;;;;1.88;1.15;;;17.70;69.30;;;;;;1082501;47;20065;-71
2021/10/21 01:44:17;;;;;;;1.90;0.90;;;17.60;69.40;;;;;;1082171;47;20058;-72
2021/10/21 01:45:58;;;;;;;2.20;1.20;;;17.50;69.80;;;;;;1081816;47;20130;-72
2021/10/21 01:47:39;;;;;;;1.20;1.13;;;17.40;70.90;;;;;;1082564;47;20604;-71
2021/10/21 01:49:21;;;;;;;3.17;1.17;;;17.20;70.90;;;;;;1082808;39;20776;-72
2021/10/21 01:51:03;;;;;;;2.03;1.05;;;17.10;71.40;;;;;;1082476;46;20045;-72
2021/10/21 01:52:45;;;;;;;2.30;1.20;;;17.00;71.70;;;;;;1082064;47;20758;-72
2021/10/21 01:54:27;;;;;;;1.40;0.95;;;16.90;73.00;;;;;;1082882;46;20038;-74
2021/10/21 01:56:08;;;;;;;3.38;1.50;;;16.80;73.20;;;;;;1082717;46;20062;-74
2021/10/21 01:57:49;;;;;;;1.65;1.08;;;16.70;73.70;;;;;;1082766;46;20034;-72
2021/10/21 01:59:30;;;;;;;3.00;1.38;;;16.60;73.90;;;;;;1082910;46;20042;-72
2021/10/21 02:01:12;;;;;;;3.03;1.00;;;16.60;73.70;;;;;;1082546;54;20038;-73
2021/10/21 02:02:53;;;;;;;3.67;0.98;;;16.50;73.80;;;;;;1082541;46;20046;-70
2021/10/21 02:04:34;;;;;;;2.95;0.90;;;16.40;73.40;;;;;;1083048;47;20035;-73
2021/10/21 02:06:16;;;;;;;1.10;1.00;;;16.40;72.60;;;;;;1082509;46;20034;-72
2021/10/21 02:07:58;;;;;;;5.30;1.10;;;16.30;72.60;;;;;;1082871;47;20035;-73
2021/10/21 02:09:39;;;;;;;3.63;0.93;;;16.20;72.80;;;;;;1082963;47;20034;-72
2021/10/21 02:11:20;;;;;;;3.60;1.02;;;16.10;72.90;;;;;;1082667;46;20545;-74
2021/10/21 02:13:02;;;;;;;4.93;1.08;;;16.10;73.20;;;;;;1082826;46;20805;-72
2021/10/21 02:14:43;;;;;;;3.53;1.35;;;16.00;73.30;;;;;;1082819;46;20159;-71
2021/10/21 02:16:24;;;;;;;4.15;0.93;;;16.00;72.70;;;;;;1083165;46;20046;-71
2021/10/21 02:18:06;;;;;;;4.18;1.05;;;15.90;72.00;;;;;;1082598;47;20061;-71
2021/10/21 02:19:47;;;;;;;2.90;1.05;;;15.90;71.70;;;;;;1082700;46;20038;-74
2021/10/21 02:21:28;;;;;;;2.30;0.85;;;15.80;72.20;;;;;;1082769;46;20045;-73
2021/10/21 02:23:09;;;;;;;2.58;0.80;;;15.80;71.30;;;;;;1082164;46;20038;-73
2021/10/21 02:24:51;;;;;;;3.40;1.20;;;15.80;71.50;;;;;;1082343;47;20038;-71
2021/10/21 02:26:33;;;;;;;3.42;1.17;;;15.80;71.10;;;;;;1082853;39;20499;-71
2021/10/21 02:28:14;;;;;;;5.57;1.20;;;15.70;71.00;;;;;;1082694;46;20038;-74
2021/10/21 02:29:55;;;;;;;2.55;1.25;;;15.80;70.00;;;;;;1082528;46;20058;-71
2021/10/21 02:31:36;;;;;;;3.08;0.88;;;15.70;70.60;;;;;;1082502;46;20086;-72
2021/10/21 02:33:18;;;;;;;2.80;1.05;;;15.70;71.00;;;;;;1082001;47;20035;-72
2021/10/21 02:34:59;;;;;;;3.15;1.10;;;15.70;70.60;;;;;;1082465;46;20058;-70
2021/10/21 02:36:40;;;;;;;2.80;1.00;;;15.70;70.20;;;;;;1082290;46;20044;-74
2021/10/21 02:38:21;;;;;;;2.25;0.98;;;15.70;70.00;;;;;;1083094;31;20567;-72
2021/10/21 02:40:05;;;;;;;2.30;1.02;;;15.70;69.20;;;;;;1082922;46;20069;-74
2021/10/21 02:41:46;;;;;;;2.58;0.85;;;15.80;68.30;;;;;;1082584;46;20065;-72
2021/10/21 02:43:27;;;;;;;3.05;0.90;;;15.80;67.40;;;;;;1082291;46;20034;-72
2021/10/21 02:45:09;;;;;;;5.13;1.15;;;15.80;67.20;;;;;;1082703;54;20041;-72
2021/10/21 02:46:50;;;;;;;2.28;0.73;;;15.80;67.40;;;;;;1082663;46;20045;-73
2021/10/21 02:48:31;;;;;;;2.28;0.90;;;15.80;67.50;;;;;;1082591;47;20493;-72
2021/10/21 02:50:13;;;;;;;2.95;0.88;;;15.90;66.80;;;;;;1082785;46;20043;-71
2021/10/21 02:51:54;;;;;;;5.07;1.33;;;15.90;67.10;;;;;;1083050;46;20035;-72
2021/10/21 02:53:35;;;;;;;2.42;0.80;;;15.90;67.10;;;;;;1082424;47;20034;-73
2021/10/21 02:55:17;;;;;;;4.18;1.02;;;15.90;67.40;;;;;;1082704;46;20034;-72
2021/10/21 02:56:58;;;;;;;2.35;0.85;;;15.90;67.30;;;;;;1082533;46;20034;-72
2021/10/21 02:58:39;;;;;;;2.90;0.90;;;16.00;67.90;;;;;;1082618;46;20034;-71
2021/10/21 03:00:21;;;;;;;3.67;1.20;;;16.00;68.40;;;;;;1082670;46;20153;-72
2021/10/21 03:02:02;;;;;;;3.38;0.80;;;16.00;68.40;;;;;;1082720;47;20501;-71
2021/10/21 03:03:44;;;;;;;2.65;0.95;;;16.00;68.20;;;;;;1082735;46;20042;-72
2021/10/21 03:05:25;;;;;;;4.05;1.00;;;16.00;68.10;;;;;;1082582;47;20056;-73
2021/10/21 03:07:06;;;;;;;4.63;1.40;;;16.00;68.00;;;;;;1082611;46;20034;-73
2021/10/21 03:08:49;;;;;;;5.65;0.85;;;16.00;67.80;;;;;;1082962;46;20057;-72
2021/10/21 03:10:30;;;;;;;3.60;0.88;;;16.00;68.00;;;;;;1082487;47;20670;-73
2021/10/21 03:12:11;;;;;;;2.92;1.00;;;16.00;67.80;;;;;;1082508;39;20464;-72
2021/10/21 03:13:52;;;;;;;3.70;1.00;;;16.00;67.80;;;;;;1083267;39;20412;-73
2021/10/21 03:15:33;;;;;;;4.10;1.00;;;16.00;67.70;;;;;;1083131;46;20134;-72
2021/10/21 03:17:15;;;;;;;2.22;0.88;;;16.00;67.60;;;;;;1083678;47;20065;-73
2021/10/21 03:18:56;;;;;;;3.63;1.02;;;16.00;67.50;;;;;;1083882;39;20390;-72
2021/10/21 03:20:37;;;;;;;4.25;1.23;;;16.00;67.20;;;;;;1083396;46;20042;-75
2021/10/21 03:22:19;;;;;;;4.13;0.98;;;16.00;67.10;;;;;;1083246;46;20034;-72
2021/10/21 03:24:01;;;;;;;4.05;0.82;;;16.00;66.80;;;;;;1083222;46;20034;-74
2021/10/21 03:25:42;;;;;;;3.67;1.23;;;16.00;66.00;;;;;;1083441;46;20038;-75
2021/10/21 03:27:23;;;;;;;4.72;1.52;;;16.00;65.50;;;;;;1083454;47;20121;-72
2021/10/21 03:29:04;;;;;;;3.53;0.90;;;16.10;65.50;;;;;;1083265;46;20034;-71
2021/10/21 03:30:46;;;;;;;3.78;0.90;;;16.10;64.90;;;;;;1083296;54;20034;-71
2021/10/21 03:32:27;;;;;;;1.52;0.88;;;16.10;65.50;;;;;;1082904;46;20026;-72
2021/10/21 03:34:08;;;;;;;3.85;1.33;;;16.10;65.40;;;;;;1082616;46;20098;-73
2021/10/21 03:35:50;;;;;;;2.88;1.10;;;16.10;64.80;;;;;;1082672;39;20373;-73
2021/10/21 03:37:31;;;;;;;1.73;0.90;;;16.20;64.70;;;;;;1082617;46;20084;-73
2021/10/21 03:39:12;;;;;;;2.20;0.77;;;16.20;64.60;;;;;;1082893;46;20034;-72
2021/10/21 03:40:54;;;;;;;2.67;1.13;;;16.20;64.30;;;;;;1082793;46;20066;-71
2021/10/21 03:42:35;;;;;;;2.00;0.80;;;16.20;63.90;;;;;;1082772;47;20034;-71
2021/10/21 03:44:17;;;;;;;3.25;0.95;;;16.20;63.50;;;;;;1082753;46;20042;-71
2021/10/21 03:45:58;;;;;;;1.80;0.73;;;16.30;63.30;;;;;;1083101;39;20424;-71
2021/10/21 03:47:39;;;;;;;5.18;0.82;;;16.20;63.30;;;;;;1082749;46;20038;-73
2021/10/21 03:49:21;;;;;;;6.55;1.23;;;16.30;63.20;;;;;;1082652;46;20046;-72
2021/10/21 03:51:02;;;;;;;2.17;0.90;;;16.30;63.40;;;;;;1082782;47;20034;-73
2021/10/21 03:52:43;;;;;;;1.88;0.80;;;16.30;63.30;;;;;;1082575;46;20057;-71
2021/10/21 03:54:24;;;;;;;3.35;0.93;;;16.40;63.40;;;;;;1082545;47;20807;-71
2021/10/21 03:56:07;;;;;;;3.13;1.42;;;16.30;63.10;;;;;;1082530;54;20093;-71
2021/10/21 03:57:49;;;;;;;2.75;1.00;;;16.30;62.80;;;;;;1083138;39;20735;-72
2021/10/21 03:59:30;;;;;;;4.55;1.08;;;16.40;63.00;;;;;;1082746;46;20038;-73
2021/10/21 04:01:12;;;;;;;3.22;1.08;;;16.40;62.50;;;;;;1082190;46;20034;-71
2021/10/21 04:02:53;;;;;;;3.20;0.90;;;16.40;62.40;;;;;;1081974;47;20035;-72
2021/10/21 04:04:34;;;;;;;5.18;1.00;;;16.40;62.30;;;;;;1082654;46;20058;-72
2021/10/21 04:06:15;;;;;;;5.85;1.13;;;16.40;62.50;;;;;;1082409;46;20039;-72
2021/10/21 04:07:57;;;;;;;2.60;0.95;;;16.50;62.80;;;;;;1083798;39;20326;-72
2021/10/21 04:09:38;;;;;;;2.67;1.00;;;16.40;63.00;;;;;;1082747;39;20457;-70
2021/10/21 04:11:19;;;;;;;2.10;0.80;;;16.50;63.20;;;;;;1083085;39;20458;-73
2021/10/21 04:13:00;;;;;;;3.85;1.10;;;16.50;63.20;;;;;;1082167;47;20497;-72
2021/10/21 04:14:42;;;;;;;3.55;0.90;;;16.50;63.20;;;;;;1082130;54;20038;-72
2021/10/21 04:16:23;;;;;;;1.75;1.10;;;16.50;63.40;;;;;;1082772;46;20088;-71
2021/10/21 04:18:04;;;;;;;3.03;0.80;;;16.50;63.50;;;;;;1082704;46;20041;-72
2021/10/21 04:19:46;;;;;;;4.72;0.85;;;16.50;63.10;;;;;;1082416;46;20034;-72
2021/10/21 04:21:28;;;;;;;2.30;0.80;;;16.50;63.20;;;;;;1082489;46;20034;-72
2021/10/21 04:23:09;;;;;;;1.63;0.93;;;16.50;63.30;;;;;;1081911;46;20042;-73
2021/10/21 04:24:51;;;;;;;2.28;1.00;;;16.50;63.20;;;;;;1082896;39;20276;-73
2021/10/21 04:26:32;;;;;;;3.00;0.70;;;16.50;63.30;;;;;;1082333;46;20050;-72
2021/10/21 04:28:13;;;;;;;1.73;0.82;;;16.50;63.20;;;;;;1082477;46;20041;-72
2021/10/21 04:29:54;;;;;;;2.65;0.85;;;16.50;63.50;;;;;;1082419;47;20034;-72
2021/10/21 04:31:35;;;;;;;1.75;0.70;;;16.50;63.40;;;;;;1082677;46;20057;-72
2021/10/21 04:33:17;;;;;;;2.50;0.65;;;16.50;63.30;;;;;;1081985;47;20034;-71
2021/10/21 04:35:01;;;;;;;1.77;0.80;;;16.50;63.50;;;;;;1082726;47;20034;-73
2021/10/21 04:36:42;;;;;;;1.65;0.75;;;16.50;63.60;;;;;;1082129;46;20057;-71
2021/10/21 04:38:24;;;;;;;1.73;0.70;;;16.50;63.30;;;;;;1082750;46;20042;-72
2021/10/21 04:40:07;;;;;;;0.70;0.50;;;16.50;63.40;;;;;;1082375;47;20146;-73
2021/10/21 04:41:48;;;;;;;1.90;0.65;;;16.50;63.70;;;;;;1082895;46;20693;-72
2021/10/21 04:43:29;;;;;;;2.38;0.90;;;16.50;64.10;;;;;;1082450;46;20026;-71
2021/10/21 04:45:10;;;;;;;0.82;0.50;;;16.40;64.60;;;;;;1082641;46;20034;-72
2021/10/21 04:46:52;;;;;;;0.85;0.50;;;16.40;64.70;;;;;;1082875;54;20062;-71
2021/10/21 04:48:33;;;;;;;1.10;0.50;;;16.40;64.80;;;;;;1082777;47;20784;-73
2021/10/21 04:50:14;;;;;;;0.95;0.43;;;16.40;65.10;;;;;;1082692;47;20064;-71
2021/10/21 04:51:55;;;;;;;2.03;0.52;;;16.40;65.40;;;;;;1082932;47;20045;-71
2021/10/21 04:53:37;;;;;;;3.60;0.85;;;16.30;65.50;;;;;;1082639;39;20089;-71
2021/10/21 04:55:22;;;;;;;2.38;0.43;;;16.30;66.00;;;;;;1082634;47;20038;-72
2021/10/21 04:57:03;;;;;;;2.17;0.50;;;16.30;66.00;;;;;;1082619;46;20034;-71
2021/10/21 04:58:44;;;;;;;0.80;0.50;;;16.20;66.40;;;;;;1082427;46;20026;-71
2021/10/21 05:00:25;;;;;;;0.52;0.50;;;16.20;66.60;;;;;;1082506;39;20385;-72
2021/10/21 05:02:09;;;;;;;1.65;0.43;;;16.20;67.00;;;;;;1082451;39;20693;-71
2021/10/21 05:03:50;;;;;;;2.22;0.88;;;16.20;67.40;;;;;;1082594;47;20030;-72
2021/10/21 05:05:31;;;;;;;3.10;0.70;;;16.10;67.60;;;;;;1082221;47;20038;-72
2021/10/21 05:07:12;;;;;;;1.27;0.73;;;16.10;67.60;;;;;;1082517;47;20044;-73
2021/10/21 05:08:54;;;;;;;2.00;0.50;;;16.10;67.90;;;;;;1082524;46;20053;-73
2021/10/21 05:10:35;;;;;;;0.45;0.40;;;16.00;68.10;;;;;;1081772;46;20156;-71
2021/10/21 05:12:16;;;;;;;1.17;0.50;;;16.00;68.20;;;;;;1082056;46;20034;-73
2021/10/21 05:13:57;;;;;;;1.92;0.50;;;16.00;68.10;;;;;;1082465;47;20042;-70
2021/10/21 05:15:40;;;;;;;2.78;0.95;;;15.90;68.20;;;;;;1083223;31;20590;-73
2021/10/21 05:17:21;;;;;;;1.63;0.50;;;15.90;68.70;;;;;;1082459;46;20044;-73
2021/10/21 05:19:02;;;;;;;1.20;0.50;;;15.90;69.00;;;;;;1082532;47;20034;-71
2021/10/21 05:20:44;;;;;;;0.38;0.38;;;15.90;70.50;;;;;;1082569;47;20137;-71
2021/10/21 05:22:25;;;;;;;0.55;0.47;;;15.80;70.80;;;;;;1082093;47;20034;-70
2021/10/21 05:24:06;;;;;;;0.85;0.30;;;15.70;70.80;;;;;;1082923;39;20457;-71
2021/10/21 05:25:48;;;;;;;1.42;0.55;;;15.70;71.50;;;;;;1082227;47;20038;-71
2021/10/21 05:27:29;;;;;;;1.10;0.50;;;15.60;71.60;;;;;;1082782;47;20038;-70
2021/10/21 05:29:10;;;;;;;2.33;0.70;;;15.60;72.70;;;;;;1082631;47;20041;-70
2021/10/21 05:30:52;;;;;;;0.40;0.40;;;15.50;72.50;;;;;;1082235;47;20042;-69
2021/10/21 05:32:33;;;;;;;2.22;1.13;;;15.50;72.80;;;;;;1082092;47;20035;-73
2021/10/21 05:34:14;;;;;;;1.10;0.60;;;15.40;72.60;;;;;;1082590;47;20027;-72
2021/10/21 05:35:55;;;;;;;1.10;0.80;;;15.40;72.60;;;;;;1082387;47;20058;-70
2021/10/21 05:37:37;;;;;;;1.27;0.60;;;15.30;73.10;;;;;;1082374;47;20027;-73
2021/10/21 05:39:18;;;;;;;0.50;0.40;;;15.20;73.30;;;;;;1082950;39;20445;-72
2021/10/21 05:41:00;;;;;;;1.40;0.65;;;15.20;73.80;;;;;;1082346;47;20031;-74
2021/10/21 05:42:41;;;;;;;2.42;0.60;;;15.10;73.90;;;;;;1081539;47;20034;-73
2021/10/21 05:44:22;;;;;;;1.25;0.50;;;15.00;74.50;;;;;;1081932;47;20034;-71
2021/10/21 05:46:03;;;;;;;2.72;1.05;;;15.00;74.70;;;;;;1081919;47;20035;-72
2021/10/21 05:47:46;;;;;;;1.30;0.52;;;14.90;74.90;;;;;;1081933;47;20057;-71
2021/10/21 05:49:27;;;;;;;2.05;0.70;;;14.80;75.10;;;;;;1082028;47;20069;-71
2021/10/21 05:51:09;;;;;;;1.33;0.80;;;14.70;75.10;;;;;;1082257;39;20712;-72
2021/10/21 05:52:50;;;;;;;0.93;0.63;;;14.70;75.50;;;;;;1081964;47;20062;-71
2021/10/21 05:54:31;;;;;;;0.63;0.60;;;14.60;76.00;;;;;;1081800;47;20034;-72
2021/10/21 05:56:13;;;;;;;0.93;0.50;;;14.60;76.10;;;;;;1081695;47;20034;-73
2021/10/21 05:57:54;;;;;;;3.72;0.60;;;14.50;76.10;;;;;;1081789;47;20065;-74
2021/10/21 05:59:35;;;;;;;2.03;0.77;;;14.50;76.00;;;;;;1081888;47;20034;-72
2021/10/21 06:01:17;;;;;;;4.30;1.00;;;14.40;76.50;;;;;;1082525;39;20402;-73
2021/10/21 06:02:58;;;;;;;1.45;0.82;;;14.40;76.50;;;;;;1081174;47;20031;-74
2021/10/21 06:04:39;;;;;;;2.80;1.15;;;14.30;76.50;;;;;;1082408;47;20035;-72
2021/10/21 06:06:20;;;;;;;3.08;0.63;;;14.30;76.30;;;;;;1082271;47;20042;-73
2021/10/21 06:08:02;;;;;;;2.65;0.88;;;14.30;76.40;;;;;;1081988;47;20034;-71
2021/10/21 06:09:44;;;;;;;4.43;1.00;;;14.20;76.70;;;;;;1081736;47;20041;-72
2021/10/21 06:11:25;;;;;;;1.33;0.73;;;14.10;76.60;;;;;;1082210;47;20042;-71
2021/10/21 06:13:06;;;;;;;2.80;0.85;;;14.10;76.70;;;;;;1081838;47;20049;-72
2021/10/21 06:14:47;;;;;;;3.78;0.82;;;14.10;77.10;;;;;;1082148;47;20038;-72
2021/10/21 06:16:29;;;;;;;1.55;1.00;;;14.00;77.20;;;;;;1082054;47;20063;-73
2021/10/21 06:18:13;;;;;;;1.85;1.00;;;14.00;77.40;;;;;;1082406;47;20042;-70
2021/10/21 06:19:54;;;;;;;3.00;0.98;;;13.90;77.30;;;;;;1082586;47;20027;-73
2021/10/21 06:21:35;;;;;;;3.75;1.08;;;13.90;77.50;;;;;;1082338;47;20501;-73
2021/10/21 06:23:17;;;;;;;3.53;1.13;;;13.90;77.90;;;;;;1082377;47;20078;-75
2021/10/21 06:24:58;;;;;;;4.22;1.25;;;13.80;78.10;;;;;;1082536;47;20146;-73
2021/10/21 06:26:39;;;;;;;1.88;0.98;;;13.80;78.10;;;;;;1082989;47;20046;-72
2021/10/21 06:28:20;;;;;;;3.15;1.25;;;13.80;78.40;;;;;;1082417;47;20098;-73
2021/10/21 06:30:02;;;;;;;2.60;0.93;;;13.70;78.40;;;;;;1082763;47;20058;-75
2021/10/21 06:31:47;;;;;;;2.67;0.90;;;13.80;78.40;;;;;;1082257;47;20525;-72
2021/10/21 06:33:28;;;;;;;3.78;1.25;;;13.70;78.80;;;;;;1082121;47;20030;-73
2021/10/21 06:35:14;;;;;;;6.50;1.38;;;13.70;78.40;;;;;;1082677;46;20042;-73
2021/10/21 06:36:56;;;;;;;4.38;1.42;;;13.70;79.00;;;;;;1081684;47;20049;-73
2021/10/21 06:38:39;;;;;;;4.75;1.52;;;13.70;79.00;;;;;;1082252;46;20034;-72
2021/10/21 06:40:20;;;;;;;3.38;1.42;;;13.60;79.30;;;;;;1082531;46;20034;-74
2021/10/21 06:42:01;;;;;;;3.88;1.20;;;13.60;79.30;;;;;;1082335;46;20066;-73
2021/10/21 06:43:43;;;;;;;2.47;1.08;;;13.70;79.30;;;;;;1082314;46;20070;-72
2021/10/21 06:45:24;;;;;;;1.67;0.93;;;13.60;79.50;;;;;;1081767;46;20042;-72
2021/10/21 06:47:06;;;;;;;2.85;1.13;;;13.60;79.60;;;;;;1082004;54;20034;-73
2021/10/21 06:48:48;;;;;;;4.03;1.27;;;13.60;79.50;;;;;;1082547;39;20382;-72
2021/10/21 06:50:30;;;;;;;4.43;1.63;;;13.60;79.60;;;;;;1082419;47;20063;-72
2021/10/21 06:52:11;;;;;;;3.88;1.17;;;13.60;79.30;;;;;;1081783;46;20034;-75
2021/10/21 06:53:53;;;;;;;3.50;1.25;;;13.60;79.30;;;;;;1082470;46;20034;-72
2021/10/21 06:55:34;;;;;;;4.30;1.35;;;13.60;79.40;;;;;;1082712;46;20035;-73
2021/10/21 06:57:16;;;;;;;5.90;1.67;;;13.60;79.20;;;;;;1082679;54;20042;-72
2021/10/21 06:58:58;;;;;;;5.78;1.60;;;13.50;79.00;;;;;;1082142;46;20573;-71
2021/10/21 07:00:41;;;;;;;7.15;1.73;;;13.60;79.30;;;;;;1082744;39;20618;-73
2021/10/21 07:02:22;;;;;;;8.15;1.75;;;13.50;79.20;;;;;;1081868;47;20792;-72
2021/10/21 07:04:04;;;;;;;5.85;1.45;;;13.50;79.10;;;;;;1082894;46;20039;-73
2021/10/21 07:05:45;;;;;;;3.58;1.20;;;13.50;79.00;;;;;;1082757;46;20027;-74
2021/10/21 07:07:27;;;;;;;5.10;1.40;;;13.50;79.00;;;;;;1082774;46;20131;-73
2021/10/21 07:09:08;;;;;;;4.78;1.70;;;13.40;79.00;;;;;;1082820;46;20034;-74
2021/10/21 07:10:49;;;;;;;3.30;1.52;;;13.50;79.20;;;;;;1082773;46;20041;-74
2021/10/21 07:12:31;;;;;;;3.65;1.45;;;13.40;79.10;;;;;;1082544;46;20042;-73
2021/10/21 07:14:12;;;;;;;4.32;1.33;;;13.40;79.20;;;;;;1082511;46;20029;-74
2021/10/21 07:15:53;;;;;;;6.25;1.55;;;13.40;78.90;;;;;;1082337;46;20699;-73
2021/10/21 07:17:35;;;;;;;2.45;1.08;;;13.40;78.60;;;;;;1082263;46;20026;-71
2021/10/21 07:19:16;;;;;;;3.97;1.88;;;13.40;78.60;;;;;;1082751;46;20035;-72
2021/10/21 07:20:58;;;;;;;3.53;1.33;;;13.40;78.40;;;;;;1082613;46;20038;-74
2021/10/21 07:22:39;;;;;;;5.20;1.33;;;13.30;78.10;;;;;;1082513;46;20074;-72
2021/10/21 07:24:21;;;;;;;5.22;1.40;;;13.40;78.00;;;;;;1082558;46;20109;-75
2021/10/21 07:26:02;;;;;;;2.95;1.35;;;13.30;77.90;;;;;;1082526;46;20034;-72
2021/10/21 07:27:43;;;;;;;2.08;1.00;;;13.30;77.80;;;;;;1081522;47;20038;-72
2021/10/21 07:29:24;;;;;;;3.00;1.40;;;13.30;77.70;;;;;;1081975;46;20810;-72
2021/10/21 07:31:08;;;;;;;4.03;1.55;;;13.30;77.70;;;;;;1081524;46;20137;-73
2021/10/21 07:32:50;;;;;;;3.20;1.10;;;13.30;77.70;;;;;;1081980;47;20505;-72
2021/10/21 07:34:31;;;;;;;3.03;1.20;;;13.20;77.80;;;;;;1082203;47;20039;-72
2021/10/21 07:36:13;;;;;;;1.60;1.00;;;13.20;77.80;;;;;;1081971;46;20035;-72
2021/10/21 07:37:54;;;;;;;3.92;1.33;;;13.30;77.90;;;;;;1082050;46;20042;-72
2021/10/21 07:39:35;;;;;;;3.80;1.33;;;13.20;78.00;;;;;;1082276;46;20035;-72
2021/10/21 07:41:21;;;;;;;4.65;1.60;;;13.20;78.10;;;;;;1083720;31;20510;-72
2021/10/21 07:43:03;;;;;;;2.90;1.20;;;13.20;78.10;;;;;;1081509;47;20856;-72
2021/10/21 07:44:45;;;;;;;7.85;1.40;;;13.30;78.10;;;;;;1081896;47;20925;-73
2021/10/21 07:46:26;;;;;;;5.25;1.27;;;13.30;78.20;;;;;;1082011;46;20050;-73
2021/10/21 07:48:07;;;;;;;6.45;1.70;;;13.30;78.20;;;;;;1082200;47;20137;-72
2021/10/21 07:49:49;;;;;;;7.22;1.65;;;13.30;78.10;;;;;;1081943;46;20034;-72
2021/10/21 07:51:31;;;;;;;7.05;2.08;;;13.30;78.00;;;;;;1082196;47;20050;-71
2021/10/21 07:53:13;;;;;;;3.28;1.35;;;13.30;78.00;;;;;;1081527;46;20035;-73
2021/10/21 07:54:54;;;;;;;3.30;1.42;;;13.30;78.00;;;;;;1082375;47;20178;-71
2021/10/21 07:56:36;;;;;;;4.13;1.42;;;13.30;78.00;;;;;;1081741;47;20058;-72
2021/10/21 07:58:17;;;;;;;4.05;1.30;;;13.30;77.90;;;;;;1082261;39;20394;-72
2021/10/21 07:59:58;;;;;;;3.30;1.40;;;13.40;77.80;;;;;;1082186;46;20045;-71
2021/10/21 08:01:39;;;;;;;6.22;1.92;;;13.40;77.90;;;;;;1082556;46;20035;-71
2021/10/21 08:03:21;;;;;;;6.47;2.03;;;13.40;77.80;;;;;;1082625;46;20035;-72
2021/10/21 08:05:02;;;;;;;5.07;1.40;;;13.40;77.70;;;;;;1082492;46;20039;-72
2021/10/21 08:06:44;;;;;;;6.25;2.63;;;13.50;77.70;;;;;;1082682;39;20347;-71
2021/10/21 08:08:26;;;;;;;3.00;1.48;;;13.50;77.20;;;;;;1082346;47;20490;-71
2021/10/21 08:10:07;;;;;;;9.10;2.00;;;13.50;77.00;;;;;;1082519;46;20069;-71
2021/10/21 08:11:51;;;;;;;5.90;1.50;;;13.50;77.00;;;;;;1082511;46;20034;-72
2021/10/21 08:13:32;;;;;;;3.55;1.55;;;13.50;76.80;;;;;;1082091;47;20042;-71
2021/10/21 08:15:14;;;;;;;6.68;1.90;;;13.50;76.90;;;;;;1082472;46;20104;-72
2021/10/21 08:16:59;;;;;;;7.28;1.95;;;13.60;77.10;;;;;;1081980;46;20062;-71
2021/10/21 08:18:40;;;;;;;6.68;1.55;;;13.60;77.00;;;;;;1082611;39;20359;-72
2021/10/21 08:20:26;;;;;;;6.50;1.98;;;13.60;77.00;;;;;;1082366;46;20061;-73
2021/10/21 08:22:08;;;;;;;9.52;1.83;;;13.70;76.50;;;;;;1081434;54;20034;-72
2021/10/21 08:23:53;;;;;;;6.15;1.90;;;13.70;76.80;;;;;;1082956;46;20034;-72
2021/10/21 08:25:34;;;;;;;3.90;1.77;;;13.80;76.90;;;;;;1082609;46;20053;-73
2021/10/21 08:27:16;;;;;;;4.95;2.08;;;13.70;76.90;;;;;;1081977;46;20074;-74
2021/10/21 08:28:58;;;;;;;6.20;2.00;;;13.80;76.90;;;;;;1081208;46;20447;-73
2021/10/21 08:30:43;;;;;;;7.13;2.05;;;13.80;76.70;;;;;;1081483;47;20174;-71
2021/10/21 08:32:24;;;;;;;6.57;1.95;;;13.90;76.80;;;;;;1082235;46;20057;-73
2021/10/21 08:34:05;;;;;;;8.27;2.80;;;13.90;76.70;;;;;;1081800;47;20034;-73
2021/10/21 08:35:46;;;;;;;3.63;1.75;;;14.00;76.50;;;;;;1081645;47;20035;-73
2021/10/21 08:37:28;;;;;;;6.13;2.05;;;14.00;76.80;;;;;;1081711;47;20071;-72
2021/10/21 08:39:09;;;;;;;4.68;1.75;;;14.00;76.80;;;;;;1082299;46;20034;-72
2021/10/21 08:40:50;;;;;;;6.05;1.65;;;14.10;76.70;;;;;;1082692;39;20408;-71
2021/10/21 08:42:32;;;;;;;6.63;2.35;;;14.10;76.10;;;;;;1081870;47;20038;-72
2021/10/21 08:44:13;;;;;;;7.50;2.38;;;14.20;75.80;;;;;;1082809;46;20147;-75
2021/10/21 08:45:54;;;;;;;9.82;1.83;;;14.30;75.30;;;;;;1082702;46;20046;-74
2021/10/21 08:47:50;;;;;;;7.57;2.85;;;14.30;75.30;;;;;;1082565;47;20065;-74
2021/10/21 08:49:32;;;;;;;5.95;1.80;;;14.30;75.20;;;;;;1082323;47;20581;-74